Here is the Quick Look data you requested

The Data originates at the National Weather Service, and is made available here by the UAlbany Department of Atmospheric and Environmental Sciences

Surface Observations

KAKQ 202154Z AUTO VRB06KT 3SM -TSRA BR BKN110 24/22 A2960 RMK AO2 LTG DSNT NE-S
 RAB2057 TSB24 SLP023 P0007 T02390222=
KAVC 202155Z AUTO 20008KT 10SM CLR 23/22 A2970 RMK AO2 T02260223=
KBCB 202155Z AUTO 25008G15KT 190V300 10SM CLR 23/20 A2976 RMK AO2 P0001
 T02250198=
KCHO 202153Z 29006KT 10SM CLR 29/18 A2957 RMK AO2 SLP004 T02940178=
KCJR 202155Z AUTO 22007KT 190V250 10SM SCT055 BKN070 BKN100 28/19 A2956 RMK AO2
 T02760186=
KCPK 202155Z AUTO 30013G36KT 3/4SM +TSRA BKN015 OVC026 22/21 A2965 RMK AO2 LTG
 DSNT ALQS P0022 T02170208=
KDAA 202156Z AUTO 27006KT 10SM CLR 31/19 A2950 RMK AO2 SLP992 T03110191 $=
KDAN 202153Z AUTO 21007KT 10SM CLR 26/22 A2966 RMK AO2 SLP031 T02610217=
KDCA 202152Z 26011KT 10SM SCT060 BKN120 BKN250 32/19 A2950 RMK AO2 RAB2055E03
 SLP990 P0000 T03170189=
KEZF 202155Z AUTO 22007KT 10SM SCT050 30/23 A2952 RMK AO2 T03020231=
KFAF 202151Z COR 24007G18KT 5SM -RA BKN130 OVC200 28/22 A2957 RMK AO2A LTG DSNT
 S DZB32E33RAB33 TSB26E51 SLP016 $ COR 2155=
KFKN 202155Z AUTO 20007KT 10SM -RA SCT120 22/21 A2964 RMK AO2 LTG DSNT E AND SE
 P0078 T02150211=
KFVX 202155Z AUTO 20006KT 10SM CLR 27/22 A2959 RMK AO2 T02660223=
KHEF 202156Z 27017G23KT 9SM FEW075 BKN090 OVC110 27/20 A2954 RMK AO2 SLP011
 T02720200 PNO $=
KHLX 202155Z AUTO 28010G16KT 10SM SCT033 SCT040 23/17 A2978 RMK AO2 T02320174=
KHSP 202155Z AUTO 27013G22KT 10SM SCT007 BKN023 OVC031 20/19 A2977 RMK AO2
 T01980188=
KIAD 202152Z 27006KT 10SM SCT060CB BKN100 BKN150 29/18 A2953 RMK AO2 WSHFT 2114
 SLP994 CB S MOV E T02890178=
KJYO 202155Z AUTO 35008G15KT 10SM SCT110 29/21 A2954 RMK AO2=
KLKU 202155Z AUTO 23007KT 190V280 10SM CLR 26/20 A2961 RMK AO2 T02630199=
KLNP 202155Z AUTO 25010KT 10SM SCT025 BKN030 OVC037 22/16 A2984 RMK AO2=
KLYH 202154Z 26006KT 10SM FEW050 28/18 A2963 RMK AO2 SLP023 T02780178 $=
KMFV 202155Z AUTO 24011G19KT 10SM CLR 32/22 A2956 RMK AO2 T03210220=
KMKJ 202155Z AUTO 26014KT 10SM SCT021 SCT034 SCT041 23/19 A2981 RMK AO2
 T02340193=
KMTV 202158Z AUTO 27005KT 10SM SCT050 SCT065 SCT075 29/18 A2970 RMK AO2=
KNGU 202159Z 22012G29KT 4SM -TSRA BR SCT035CB BKN090 OVC110 23/21 A2963 RMK AO2
 PK WND 24031/2148 RAB21 TSB23 SLP032 FRQ LTGICCG OHD TS OHD MOV E SVR T1 SET
 P0012 T02330211=
KNTU 202156Z 24010KT 10SM TS SCT020CB BKN050 BKN130 31/21 A2958 RMK AO2 TSB34
 SLP018 CNS LTGICCCCG OHD TS OHD MOV E SVR T1 SET T03060206=
KNYG 202156Z AUTO 24008KT 10SM BKN060 BKN080 31/21 A2952 RMK AO2 RAB13E53
 SLP996 P0000 T03110211 $=
KOFP 202154Z AUTO 22010KT 10SM FEW049 SCT090 28/19 A2958 RMK AO2 RAB19E49
 SLP014 P0000 T02830194=
KOKV 202155Z AUTO 27008KT 10SM SCT120 27/18 A2957 RMK AO2=
KOMH 202155Z AUTO 00000KT 10SM SCT050 SCT070 25/19 A2956 RMK AO2=
KORF 202151Z 30010G18KT 240V340 10SM R05/3000VP6000FT RA FEW012 BKN046 OVC110
 24/21 A2965 RMK AO2 PK WND 34029/2147 RAB35 PRESRR SLP040 P0001 T02440211=
KPHF 202154Z 25013G23KT 10SM -RA FEW055 FEW070 BKN110 30/20 A2959 RMK AO2 LTG
 DSNT E-S RAB51 SLP018 P0000 T03000200=
KPSK 202155Z AUTO 26006KT 10SM CLR 24/19 A2975 RMK AO2 T02420192=
KPTB 202155Z AUTO 22005KT 10SM -RA CLR 24/22 A2961 RMK AO2 T02420220=
KRIC 202154Z 24013KT 10SM FEW040 BKN080 BKN200 29/21 A2957 RMK AO2 RAE04B22E36
 SLP017 P0000 T02890206=
KROA 202154Z 25008G22KT 10SM FEW060 BKN110 27/18 A2968 RMK AO2 SLP039 T02670178=
KSFQ 202155Z AUTO 00000KT 10SM -RA SCT015 SCT031 SCT055 22/22 A2965 RMK AO2 LTG
 DSNT NE THRU SE P0064 T02200219=
KSHD 202150Z AUTO 24008KT 10SM SCT070 BKN080 25/20 A2963 RMK AO2 T02540201=
KVJI 202155Z AUTO 28012G20KT 10SM SCT029 BKN035 OVC075 23/17 A2980 RMK AO2
 T02250174=
KWAL 202154Z 24013KT 10SM CLR 32/21 A2955 RMK AO2 SLP003 T03220211=